createdAt,value
2023-04-14T00:00:17.842Z,86.39
2023-04-14T00:01:13.169Z,86.46
2023-04-14T00:02:08.292Z,86.56
2023-04-14T00:03:03.478Z,86.83
2023-04-14T00:03:58.403Z,86.77
2023-04-14T00:04:53.490Z,86.82
2023-04-14T00:05:48.383Z,86.83
2023-04-14T00:06:43.439Z,86.90
2023-04-14T00:07:38.492Z,86.84
2023-04-14T00:08:33.849Z,86.88
2023-04-14T00:09:28.927Z,86.90
2023-04-14T00:10:23.946Z,87.08
2023-04-14T00:11:19.007Z,87.21
2023-04-14T00:12:14.067Z,87.28
2023-04-14T00:13:09.310Z,87.30
2023-04-14T00:14:04.254Z,87.28
2023-04-14T00:14:59.413Z,87.16
2023-04-14T00:15:54.312Z,87.12
2023-04-14T00:16:49.425Z,87.15
2023-04-14T00:17:44.599Z,87.11
2023-04-14T00:18:39.478Z,87.15
2023-04-14T00:19:34.461Z,87.09
2023-04-14T00:20:29.520Z,87.09
2023-04-14T00:21:24.565Z,87.09
2023-04-14T00:22:19.581Z,87.08
2023-04-14T00:23:14.767Z,87.08
2023-04-14T00:24:09.656Z,87.08
2023-04-14T00:25:04.704Z,87.04
2023-04-14T00:25:59.744Z,87.00
2023-04-14T00:26:54.876Z,86.87
2023-04-14T00:27:50.322Z,86.78
2023-04-14T00:28:45.895Z,86.78
2023-04-14T00:29:41.077Z,86.83
2023-04-14T00:30:36.267Z,86.83
2023-04-14T00:31:32.226Z,86.90
2023-04-14T00:32:27.431Z,86.86
2023-04-14T00:33:22.737Z,86.83
2023-04-14T00:34:19.012Z,86.75
2023-04-14T00:35:14.219Z,86.60
2023-04-14T00:36:09.930Z,86.45
2023-04-14T00:37:05.121Z,86.32
2023-04-14T00:38:00.302Z,86.26
2023-04-14T00:38:56.248Z,86.20
2023-04-14T00:39:51.407Z,86.17
2023-04-14T00:40:47.415Z,86.10
2023-04-14T00:41:42.457Z,86.00
2023-04-14T00:42:37.954Z,86.06
2023-04-14T00:43:33.561Z,86.08
2023-04-14T00:44:28.743Z,86.01
2023-04-14T00:45:23.993Z,86.00
2023-04-14T00:46:20.347Z,86.06
2023-04-14T00:47:15.534Z,86.07
2023-04-14T00:48:11.423Z,86.09
2023-04-14T00:49:06.594Z,86.03
2023-04-14T00:50:01.933Z,85.92
2023-04-14T00:50:57.540Z,85.78
2023-04-14T00:51:52.755Z,85.80
2023-04-14T00:52:48.676Z,85.78
2023-04-14T00:53:43.712Z,85.59
2023-04-14T00:54:39.026Z,85.40
2023-04-14T00:55:34.679Z,85.36
2023-04-14T00:56:29.882Z,85.18
2023-04-14T00:57:25.116Z,85.03
2023-04-14T00:58:21.303Z,84.93
2023-04-14T00:59:16.550Z,84.86
2023-04-14T01:00:12.289Z,84.95
2023-04-14T01:01:07.455Z,84.88
2023-04-14T01:02:02.603Z,84.80
2023-04-14T01:02:58.442Z,84.64
2023-04-14T01:03:53.796Z,84.66
2023-04-14T01:04:54.181Z,84.66
2023-04-14T01:05:45.497Z,84.71
2023-04-14T01:06:40.277Z,84.86
2023-04-14T01:07:35.504Z,84.89
2023-04-14T01:08:31.340Z,84.92
2023-04-14T01:09:26.392Z,85.11
2023-04-14T01:10:21.698Z,85.25
2023-04-14T01:11:17.625Z,85.47
2023-04-14T01:12:12.783Z,85.62
2023-04-14T01:13:08.325Z,85.78
2023-04-14T01:14:04.343Z,85.95
2023-04-14T01:14:59.545Z,86.05
2023-04-14T01:15:55.318Z,86.02
2023-04-14T01:16:50.447Z,85.97
2023-04-14T01:17:45.788Z,86.04
2023-04-14T01:18:41.569Z,86.18
2023-04-14T01:19:36.764Z,86.23
2023-04-14T01:20:32.543Z,86.28
2023-04-14T01:21:27.726Z,86.35
2023-04-14T01:22:23.031Z,86.32
2023-04-14T01:23:18.698Z,86.38
2023-04-14T01:24:13.909Z,86.32
2023-04-14T01:25:09.142Z,86.31
2023-04-14T01:26:05.308Z,86.40
2023-04-14T01:27:00.546Z,86.38
2023-04-14T01:27:56.308Z,86.36
2023-04-14T01:28:51.537Z,86.31
2023-04-14T01:29:46.583Z,86.24
2023-04-14T01:30:41.759Z,86.25
2023-04-14T01:31:37.739Z,86.29
2023-04-14T01:32:32.733Z,86.38
2023-04-14T01:33:28.353Z,86.42
2023-04-14T01:34:23.831Z,86.50
2023-04-14T01:35:19.038Z,86.48
2023-04-14T01:36:14.204Z,86.35
2023-04-14T01:37:10.639Z,86.34
2023-04-14T01:38:05.852Z,86.30
2023-04-14T01:39:02.080Z,86.35
2023-04-14T01:39:56.833Z,86.39
2023-04-14T01:40:51.927Z,86.43
2023-04-14T01:41:47.655Z,86.57
2023-04-14T01:42:42.907Z,86.65
2023-04-14T01:43:38.642Z,86.74
2023-04-14T01:44:33.827Z,86.72
2023-04-14T01:45:29.077Z,86.63
2023-04-14T01:46:24.253Z,86.58
2023-04-14T01:47:19.435Z,86.51
2023-04-14T01:48:14.643Z,86.51
2023-04-14T01:49:09.519Z,86.63
2023-04-14T01:50:04.613Z,86.67
2023-04-14T01:51:03.726Z,86.77
2023-04-14T01:51:58.946Z,86.76
2023-04-14T01:52:54.126Z,86.77
2023-04-14T01:53:49.504Z,86.90
2023-04-14T01:54:45.479Z,86.88
2023-04-14T01:55:40.644Z,86.86
2023-04-14T01:56:35.823Z,86.82
2023-04-14T01:57:35.335Z,86.75
2023-04-14T01:58:30.391Z,86.66
2023-04-14T01:59:25.628Z,86.59
2023-04-14T02:00:20.794Z,86.55
2023-04-14T02:01:15.864Z,86.59
2023-04-14T02:02:10.955Z,86.61
2023-04-14T02:03:06.065Z,86.60
2023-04-14T02:04:01.352Z,86.61
2023-04-14T02:04:56.169Z,86.72
2023-04-14T02:05:51.193Z,86.80
2023-04-14T02:06:46.257Z,86.80
2023-04-14T02:07:41.293Z,86.72
2023-04-14T02:08:36.376Z,86.63
2023-04-14T02:09:31.407Z,86.60
2023-04-14T02:10:26.456Z,86.53
2023-04-14T02:11:22.118Z,86.50
2023-04-14T02:12:16.514Z,86.41
2023-04-14T02:13:11.596Z,86.40
2023-04-14T02:14:06.682Z,86.49
2023-04-14T02:15:01.773Z,86.48
2023-04-14T02:15:56.790Z,86.52
2023-04-14T02:16:52.143Z,86.55
2023-04-14T02:17:47.298Z,86.58
2023-04-14T02:18:42.695Z,86.58
2023-04-14T02:19:37.645Z,86.52
2023-04-14T02:20:32.829Z,86.50
2023-04-14T02:21:28.019Z,86.48
2023-04-14T02:22:23.149Z,86.36
2023-04-14T02:23:18.366Z,86.28
2023-04-14T02:24:13.399Z,86.22
2023-04-14T02:25:08.572Z,86.15
2023-04-14T02:26:03.735Z,86.14
2023-04-14T02:26:58.961Z,86.16
2023-04-14T02:27:54.090Z,86.12
2023-04-14T02:28:49.465Z,86.15
2023-04-14T02:29:44.479Z,86.12
2023-04-14T02:30:39.738Z,86.10
2023-04-14T02:31:34.748Z,86.07
2023-04-14T02:32:29.969Z,86.14
2023-04-14T02:33:25.270Z,86.30
2023-04-14T02:34:22.396Z,86.40
2023-04-14T02:35:17.526Z,86.42
2023-04-14T02:36:12.735Z,86.55
2023-04-14T02:37:07.902Z,86.65
2023-04-14T02:38:03.113Z,86.85
2023-04-14T02:38:58.254Z,86.94
2023-04-14T02:39:53.290Z,87.06
2023-04-14T02:40:48.286Z,87.29
2023-04-14T02:41:43.344Z,87.35
2023-04-14T02:42:38.329Z,87.47
2023-04-14T02:43:33.452Z,87.61
2023-04-14T02:44:28.590Z,87.72
2023-04-14T02:45:23.661Z,87.98
2023-04-14T02:46:19.690Z,88.08
2023-04-14T02:47:14.680Z,88.15
2023-04-14T02:48:09.869Z,88.18
2023-04-14T02:49:04.810Z,88.17
2023-04-14T02:49:59.814Z,88.16
2023-04-14T02:50:54.876Z,88.20
2023-04-14T02:51:49.999Z,88.12
2023-04-14T02:52:45.067Z,88.08
2023-04-14T02:53:40.248Z,87.96
2023-04-14T02:54:35.168Z,87.85
2023-04-14T02:55:30.182Z,87.79
2023-04-14T02:56:25.214Z,87.72
2023-04-14T02:57:20.243Z,87.69
2023-04-14T02:58:15.328Z,87.65
2023-04-14T02:59:10.415Z,87.52
2023-04-14T03:00:05.366Z,87.39
2023-04-14T03:01:03.507Z,87.24
2023-04-14T03:01:58.717Z,87.14
2023-04-14T03:02:53.579Z,87.18
2023-04-14T03:03:48.637Z,87.22
2023-04-14T03:04:43.586Z,87.25
2023-04-14T03:05:38.772Z,87.24
2023-04-14T03:06:33.664Z,87.17
2023-04-14T03:07:28.778Z,87.15
2023-04-14T03:08:23.869Z,87.14
2023-04-14T03:09:18.889Z,87.12
2023-04-14T03:10:13.980Z,87.18
2023-04-14T03:11:09.040Z,87.30
2023-04-14T03:12:04.118Z,87.36
2023-04-14T03:12:59.310Z,87.17
2023-04-14T03:13:54.633Z,87.03
2023-04-14T03:14:50.324Z,86.98
2023-04-14T03:15:45.552Z,86.83
2023-04-14T03:16:41.285Z,86.64
2023-04-14T03:17:36.436Z,86.45
2023-04-14T03:18:31.794Z,86.38
2023-04-14T03:19:27.408Z,86.30
2023-04-14T03:20:23.332Z,86.20
2023-04-14T03:21:17.681Z,86.01
2023-04-14T03:22:12.727Z,86.02
2023-04-14T03:23:07.992Z,85.92
2023-04-14T03:24:02.843Z,85.75
2023-04-14T03:24:57.857Z,85.72
2023-04-14T03:25:52.947Z,85.70
2023-04-14T03:26:48.024Z,85.65
2023-04-14T03:27:43.083Z,85.50
2023-04-14T03:28:43.148Z,85.50
2023-04-14T03:29:38.320Z,85.50
2023-04-14T03:30:33.519Z,85.57
2023-04-14T03:31:29.468Z,85.71
2023-04-14T03:32:24.545Z,85.76
2023-04-14T03:33:19.739Z,85.79
2023-04-14T03:34:16.025Z,85.77
2023-04-14T03:35:11.200Z,85.75
2023-04-14T03:36:06.930Z,85.72
2023-04-14T03:37:02.126Z,85.57
2023-04-14T03:37:57.296Z,85.52
2023-04-14T03:38:53.393Z,85.53
2023-04-14T03:39:48.303Z,85.58
2023-04-14T03:40:44.347Z,85.66
2023-04-14T03:41:39.361Z,85.68
2023-04-14T03:42:34.701Z,85.73
2023-04-14T03:43:30.491Z,85.80
2023-04-14T03:44:25.679Z,85.78
2023-04-14T03:45:20.982Z,85.88
2023-04-14T03:46:17.061Z,86.01
2023-04-14T03:47:12.237Z,86.12
2023-04-14T03:48:08.051Z,86.16
2023-04-14T03:49:03.403Z,86.12
2023-04-14T03:49:58.631Z,86.14
2023-04-14T03:50:54.255Z,86.24
2023-04-14T03:51:49.502Z,86.21
2023-04-14T03:52:45.237Z,86.20
2023-04-14T03:53:40.430Z,86.20
2023-04-14T03:54:35.742Z,86.30
2023-04-14T03:55:31.492Z,86.36
2023-04-14T03:56:26.692Z,86.40
2023-04-14T03:57:21.896Z,86.35
2023-04-14T03:58:18.069Z,86.22
2023-04-14T03:59:13.588Z,86.28
2023-04-14T04:00:08.466Z,86.30
2023-04-14T04:01:03.653Z,86.28
2023-04-14T04:01:59.524Z,86.30
2023-04-14T04:02:54.702Z,86.31
2023-04-14T04:03:50.148Z,86.29
2023-04-14T04:04:45.663Z,86.23
2023-04-14T04:05:40.692Z,86.14
2023-04-14T04:06:35.889Z,86.03
2023-04-14T04:07:32.016Z,86.02
2023-04-14T04:08:27.373Z,85.97
2023-04-14T04:09:23.014Z,85.94
2023-04-14T04:10:18.198Z,85.90
2023-04-14T04:11:13.247Z,85.86
2023-04-14T04:12:09.130Z,85.95
2023-04-14T04:13:04.340Z,85.96
2023-04-14T04:14:00.123Z,86.03
2023-04-14T04:14:55.143Z,85.96
2023-04-14T04:15:50.510Z,85.96
2023-04-14T04:16:45.765Z,85.80
2023-04-14T04:17:40.998Z,85.69
2023-04-14T04:18:36.076Z,85.68
2023-04-14T04:19:31.333Z,85.76
2023-04-14T04:20:26.204Z,85.93
2023-04-14T04:21:21.248Z,85.98
2023-04-14T04:22:16.201Z,85.93
2023-04-14T04:23:11.350Z,85.75
2023-04-14T04:24:06.316Z,85.62
2023-04-14T04:25:01.452Z,85.73
2023-04-14T04:25:56.522Z,85.63
2023-04-14T04:26:51.659Z,85.51
2023-04-14T04:27:46.765Z,85.35
2023-04-14T04:28:43.641Z,85.47
2023-04-14T04:29:38.870Z,85.44
2023-04-14T04:30:34.134Z,85.41
2023-04-14T04:31:33.718Z,85.45
2023-04-14T04:32:28.844Z,85.54
2023-04-14T04:34:49.720Z,86.34
2023-04-14T04:35:43.138Z,86.12
2023-04-14T04:36:38.401Z,86.11
2023-04-14T04:37:33.736Z,86.14
2023-04-14T04:38:28.959Z,86.14
2023-04-14T04:39:24.425Z,86.03
2023-04-14T04:40:19.500Z,86.01
2023-04-14T04:41:14.835Z,85.98
2023-04-14T04:42:10.149Z,85.93
2023-04-14T04:43:05.588Z,85.91
2023-04-14T04:44:00.736Z,85.97
2023-04-14T04:44:56.198Z,85.98
2023-04-14T04:45:51.459Z,85.98
2023-04-14T04:46:46.749Z,85.90
2023-04-14T04:47:42.005Z,85.63
2023-04-14T04:48:37.313Z,85.44
2023-04-14T04:49:32.825Z,85.14
2023-04-14T04:50:27.933Z,84.98
2023-04-14T04:51:23.243Z,84.88
2023-04-14T04:52:18.584Z,84.85
2023-04-14T04:53:13.902Z,84.80
2023-04-14T04:54:09.405Z,84.68
2023-04-14T04:55:04.581Z,84.48
2023-04-14T04:55:59.812Z,84.49
2023-04-14T04:56:55.130Z,84.48
2023-04-14T04:57:50.495Z,84.58
2023-04-14T04:58:45.808Z,84.52
2023-04-14T04:59:41.178Z,84.54
2023-04-14T05:00:36.357Z,84.58
2023-04-14T05:01:31.748Z,84.75
2023-04-14T05:02:26.977Z,84.74
2023-04-14T05:03:22.241Z,84.70
2023-04-14T05:04:17.746Z,84.60
2023-04-14T05:05:12.886Z,84.61
2023-04-14T05:06:08.145Z,84.61
2023-04-14T05:07:03.542Z,84.58
2023-04-14T05:07:58.845Z,84.69
2023-04-14T05:08:54.237Z,84.80
2023-04-14T05:09:49.622Z,84.80
2023-04-14T05:10:45.053Z,84.76
2023-04-14T05:11:40.452Z,84.75
2023-04-14T05:12:35.865Z,84.58
2023-04-14T05:13:31.106Z,84.60
2023-04-14T05:14:27.668Z,84.71
2023-04-14T05:15:21.918Z,84.77
2023-04-14T05:16:17.385Z,84.80
2023-04-14T05:17:12.439Z,84.58
2023-04-14T05:18:08.064Z,84.38
2023-04-14T05:19:03.616Z,84.22
2023-04-14T05:19:58.581Z,84.03
2023-04-14T05:20:53.877Z,83.72
2023-04-14T05:21:49.376Z,83.53
2023-04-14T05:22:44.653Z,83.45
2023-04-14T05:23:40.168Z,83.43
2023-04-14T05:24:35.501Z,83.43
2023-04-14T05:25:31.175Z,83.42
2023-04-14T05:26:49.143Z,83.38
2023-04-14T05:27:23.284Z,83.34
2023-04-14T05:28:17.133Z,83.32
2023-04-14T05:29:12.463Z,83.32
2023-04-14T05:30:07.799Z,83.21
2023-04-14T05:31:03.243Z,83.02
2023-04-14T05:31:58.519Z,82.78
2023-04-14T05:32:54.117Z,82.74
2023-04-14T05:33:49.285Z,82.72
2023-04-14T05:34:44.742Z,82.71
2023-04-14T05:35:40.160Z,82.82
2023-04-14T05:36:35.598Z,82.70
2023-04-14T05:37:30.890Z,82.64
2023-04-14T05:38:26.282Z,82.57
2023-04-14T05:39:22.062Z,82.51
2023-04-14T05:40:17.421Z,82.53
2023-04-14T05:41:12.910Z,82.56
2023-04-14T05:42:08.350Z,82.64
2023-04-14T05:43:03.682Z,82.56
2023-04-14T05:43:59.410Z,82.57
2023-04-14T05:44:54.552Z,82.48
2023-04-14T05:45:50.053Z,82.39
2023-04-14T05:46:45.448Z,82.28
2023-04-14T05:47:40.944Z,82.03
2023-04-14T05:48:36.096Z,82.00
2023-04-14T05:49:31.682Z,81.90
2023-04-14T05:50:26.971Z,81.85
2023-04-14T05:51:22.381Z,81.70
2023-04-14T05:52:17.846Z,81.65
2023-04-14T05:53:13.180Z,81.51
2023-04-14T05:54:08.644Z,81.24
2023-04-14T05:55:03.940Z,81.22
2023-04-14T05:55:58.965Z,81.19
2023-04-14T05:56:54.166Z,81.01
2023-04-14T05:57:49.192Z,81.01
2023-04-14T05:58:45.920Z,80.84
2023-04-14T05:59:40.947Z,80.89
2023-04-14T06:00:36.255Z,81.10
2023-04-14T06:01:31.512Z,81.08
2023-04-14T06:02:26.648Z,81.12
2023-04-14T06:03:21.760Z,81.09
2023-04-14T06:04:16.707Z,80.96
2023-04-14T06:05:11.987Z,80.89
2023-04-14T06:06:06.829Z,80.82
2023-04-14T06:07:01.833Z,80.84
2023-04-14T06:07:57.042Z,80.82
2023-04-14T06:08:52.100Z,80.84
2023-04-14T06:09:47.136Z,80.73
2023-04-14T06:10:42.193Z,80.54
2023-04-14T06:11:37.249Z,80.49
2023-04-14T06:12:32.262Z,80.56
2023-04-14T06:13:28.475Z,80.41
2023-04-14T06:14:22.406Z,80.25
2023-04-14T06:15:17.603Z,80.31
2023-04-14T06:16:12.812Z,80.32
2023-04-14T06:17:07.724Z,80.37
2023-04-14T06:18:02.936Z,80.22
2023-04-14T06:18:58.505Z,80.17
2023-04-14T06:19:53.732Z,80.22
2023-04-14T06:20:49.067Z,79.96
2023-04-14T06:21:44.410Z,79.80
2023-04-14T06:22:40.019Z,79.81
2023-04-14T06:23:35.372Z,79.73
2023-04-14T06:24:30.657Z,79.45
2023-04-14T06:25:25.980Z,79.32
2023-04-14T06:26:21.471Z,79.08
2023-04-14T06:27:16.779Z,78.66
2023-04-14T06:28:12.198Z,78.61
2023-04-14T06:29:07.118Z,78.74
2023-04-14T06:30:02.322Z,78.87
2023-04-14T06:30:57.397Z,79.03
2023-04-14T06:31:52.444Z,78.86
2023-04-14T06:32:52.094Z,78.50
2023-04-14T06:33:47.443Z,78.33
2023-04-14T06:34:42.727Z,78.11
2023-04-14T06:35:38.501Z,78.02
2023-04-14T06:36:33.928Z,77.85
2023-04-14T06:37:29.375Z,77.73
2023-04-14T06:38:25.731Z,77.63
2023-04-14T06:39:20.945Z,77.27
2023-04-14T06:40:16.698Z,77.18
2023-04-14T06:41:12.209Z,77.11
2023-04-14T06:42:07.665Z,76.86
2023-04-14T06:43:03.274Z,76.77
2023-04-14T06:43:58.601Z,76.75
2023-04-14T06:44:54.373Z,76.64
2023-04-14T06:45:49.654Z,76.75
2023-04-14T06:46:45.239Z,76.37
2023-04-14T06:47:40.983Z,75.93
2023-04-14T06:48:36.480Z,75.22
2023-04-14T06:49:31.656Z,74.89
2023-04-14T06:50:28.316Z,74.60
2023-04-14T06:51:23.545Z,74.48
2023-04-14T06:52:19.325Z,74.45
2023-04-14T06:53:14.832Z,74.51
2023-04-14T06:54:10.063Z,74.59
2023-04-14T06:55:05.813Z,74.41
2023-04-14T06:56:01.145Z,74.16
2023-04-14T06:56:57.244Z,74.29
2023-04-14T06:57:52.229Z,74.01
2023-04-14T06:58:47.672Z,73.79
2023-04-14T06:59:44.336Z,73.64
2023-04-14T07:00:39.636Z,73.16
2023-04-14T07:01:35.167Z,72.65
2023-04-14T07:02:31.342Z,72.45
2023-04-14T07:03:26.832Z,72.02
2023-04-14T07:04:22.544Z,71.60
2023-04-14T07:05:17.976Z,71.24
2023-04-14T07:06:13.293Z,71.29
2023-04-14T07:07:09.126Z,71.05
2023-04-14T07:08:04.438Z,70.54
2023-04-14T07:09:00.179Z,69.78
2023-04-14T07:09:55.756Z,69.70
2023-04-14T07:10:50.958Z,69.29
2023-04-14T07:11:46.697Z,69.20
2023-04-14T07:12:42.062Z,69.52
2023-04-14T07:13:37.537Z,69.02
2023-04-14T07:14:33.725Z,68.76
2023-04-14T07:15:29.049Z,68.58
2023-04-14T07:16:25.002Z,68.08
2023-04-14T07:17:20.239Z,68.50
2023-04-14T07:18:15.784Z,68.93
2023-04-14T07:19:11.454Z,68.42
2023-04-14T07:20:06.951Z,68.44
2023-04-14T07:21:02.847Z,68.22
2023-04-14T07:21:58.237Z,67.94
2023-04-14T07:22:53.499Z,67.57
2023-04-14T07:23:49.349Z,67.16
2023-04-14T07:24:44.721Z,66.77
2023-04-14T07:25:40.235Z,66.94
2023-04-14T07:26:36.461Z,66.53
2023-04-14T07:27:31.935Z,66.22
2023-04-14T07:28:27.631Z,66.24
2023-04-14T07:29:23.174Z,66.44
2023-04-14T07:30:18.565Z,67.01
2023-04-14T07:31:14.318Z,66.73
2023-04-14T07:32:09.811Z,66.34
2023-04-14T07:33:05.225Z,66.58
2023-04-14T07:34:00.736Z,65.56
2023-04-14T07:34:57.767Z,65.16
2023-04-14T07:36:02.246Z,64.78
2023-04-14T07:36:48.356Z,64.91
2023-04-14T07:37:42.720Z,64.42
2023-04-14T07:38:39.009Z,65.11
2023-04-14T07:39:34.125Z,64.97
2023-04-14T07:40:29.624Z,64.61
2023-04-14T07:41:25.799Z,63.93
2023-04-14T07:42:21.282Z,63.77
2023-04-14T07:43:17.168Z,63.80
2023-04-14T07:44:12.817Z,63.61
2023-04-14T07:45:08.181Z,63.57
2023-04-14T07:46:03.967Z,63.31
2023-04-14T07:46:59.479Z,63.72
2023-04-14T07:47:57.567Z,62.41
2023-04-14T07:48:50.827Z,62.96
2023-04-14T07:49:46.249Z,63.46
2023-04-14T07:50:41.679Z,62.88
2023-04-14T07:51:37.168Z,62.97
2023-04-14T07:52:33.891Z,62.64
2023-04-14T07:53:29.230Z,62.48
2023-04-14T07:54:24.592Z,61.97
2023-04-14T07:55:20.692Z,62.24
2023-04-14T07:56:15.912Z,61.80
2023-04-14T07:57:11.218Z,61.07
2023-04-14T07:58:06.717Z,61.58
2023-04-14T07:59:03.202Z,62.01
2023-04-14T07:59:58.306Z,61.79
2023-04-14T08:00:53.826Z,61.39
2023-04-14T08:01:52.548Z,61.11
2023-04-14T08:02:48.158Z,61.58
2023-04-14T08:03:45.360Z,61.83
2023-04-14T08:04:38.847Z,62.44
2023-04-14T08:05:34.007Z,61.59
2023-04-14T08:06:29.129Z,61.77
2023-04-14T08:07:24.119Z,61.71
2023-04-14T08:08:23.472Z,61.80
2023-04-14T08:09:18.879Z,61.70
2023-04-14T08:10:14.309Z,61.37
2023-04-14T08:11:10.159Z,61.74
2023-04-14T08:12:05.675Z,61.73
2023-04-14T08:13:03.187Z,61.77
2023-04-14T08:13:57.392Z,61.63
2023-04-14T08:14:52.810Z,61.36
2023-04-14T08:15:48.710Z,61.24
2023-04-14T08:16:44.214Z,60.60
2023-04-14T08:17:39.928Z,60.94
2023-04-14T08:18:35.326Z,60.62
2023-04-14T08:19:30.798Z,60.44
2023-04-14T08:20:26.768Z,60.52
2023-04-14T08:21:22.003Z,60.36
2023-04-14T08:22:17.552Z,59.76
2023-04-14T08:23:13.138Z,60.43
2023-04-14T08:24:08.637Z,60.50
2023-04-14T08:25:04.117Z,60.41
2023-04-14T08:26:00.409Z,60.73
2023-04-14T08:26:55.945Z,59.44
2023-04-14T08:27:51.847Z,60.02
2023-04-14T08:28:47.236Z,60.52
2023-04-14T08:29:42.706Z,58.70
2023-04-14T08:30:38.561Z,58.76
2023-04-14T08:31:34.022Z,58.27
2023-04-14T08:32:30.023Z,58.07
2023-04-14T08:33:25.295Z,57.88
2023-04-14T08:34:21.348Z,57.63
2023-04-14T08:35:35.111Z,57.77
2023-04-14T08:36:12.998Z,58.18
2023-04-14T08:37:07.588Z,59.10
2023-04-14T08:38:02.492Z,59.90
2023-04-14T08:38:57.629Z,60.23
2023-04-14T08:39:52.639Z,60.49
2023-04-14T08:40:47.690Z,59.69
2023-04-14T08:41:42.756Z,58.39
2023-04-14T08:42:37.890Z,58.65
2023-04-14T08:43:32.797Z,58.03
2023-04-14T08:44:27.906Z,59.02
2023-04-14T08:45:22.904Z,58.93
2023-04-14T08:46:18.074Z,57.91
2023-04-14T08:47:13.135Z,58.02
2023-04-14T08:48:10.175Z,56.95
2023-04-14T08:49:05.256Z,56.53
2023-04-14T08:50:00.454Z,55.26
2023-04-14T08:50:55.308Z,55.79
2023-04-14T08:51:50.398Z,55.24
2023-04-14T08:52:45.474Z,55.26
2023-04-14T08:53:40.602Z,54.82
2023-04-14T08:54:35.544Z,55.67
2023-04-14T08:55:30.626Z,56.07
2023-04-14T08:56:25.591Z,56.68
2023-04-14T08:57:21.716Z,56.82
2023-04-14T08:58:17.089Z,56.81
2023-04-14T08:59:13.013Z,57.56
2023-04-14T09:00:08.346Z,57.70
2023-04-14T09:01:03.924Z,57.84
2023-04-14T09:01:59.862Z,58.50
2023-04-14T09:02:55.493Z,58.75
2023-04-14T09:03:51.333Z,58.73
2023-04-14T09:04:46.727Z,58.21
2023-04-14T09:05:42.075Z,56.56
2023-04-14T09:06:38.109Z,56.02
2023-04-14T09:07:33.359Z,55.74
2023-04-14T09:08:28.796Z,54.83
2023-04-14T09:09:27.537Z,55.54
2023-04-14T09:10:22.929Z,56.41
2023-04-14T09:11:18.301Z,56.47
2023-04-14T09:12:14.167Z,56.67
2023-04-14T09:13:09.735Z,56.74
2023-04-14T09:14:05.188Z,55.12
2023-04-14T09:15:01.793Z,54.92
2023-04-14T09:15:56.987Z,56.49
2023-04-14T09:16:52.822Z,56.97
2023-04-14T09:17:48.208Z,56.17
2023-04-14T09:18:43.596Z,56.83
2023-04-14T09:20:38.899Z,56.68
2023-04-14T09:20:40.965Z,57.06
2023-04-14T09:21:53.897Z,56.37
2023-04-14T09:22:26.961Z,56.44
2023-04-14T09:23:22.829Z,56.23
2023-04-14T09:24:18.295Z,56.47
2023-04-14T09:25:13.753Z,55.87
2023-04-14T09:26:09.399Z,56.69
2023-04-14T09:27:04.760Z,55.69
2023-04-14T09:28:01.499Z,55.43
2023-04-14T09:28:56.972Z,54.85
2023-04-14T09:29:52.802Z,55.04
2023-04-14T09:30:48.301Z,55.46
2023-04-14T09:31:43.909Z,55.23
2023-04-14T09:32:39.268Z,54.63
2023-04-14T09:33:35.851Z,54.42
2023-04-14T09:34:31.251Z,53.62
2023-04-14T09:35:26.510Z,53.22
2023-04-14T09:36:21.937Z,52.50
2023-04-14T09:37:16.899Z,52.28
2023-04-14T09:38:12.003Z,52.24
2023-04-14T09:39:07.080Z,52.44
2023-04-14T09:40:02.145Z,53.18
2023-04-14T09:40:57.184Z,53.68
2023-04-14T09:41:52.311Z,53.49
2023-04-14T09:42:47.275Z,53.96
2023-04-14T09:43:42.381Z,54.28
2023-04-14T09:44:37.374Z,54.40
2023-04-14T09:45:32.458Z,54.99
2023-04-14T09:46:27.978Z,55.12
2023-04-14T09:47:23.246Z,55.20
2023-04-14T09:48:18.985Z,56.08
2023-04-14T09:49:14.426Z,55.60
2023-04-14T09:50:10.005Z,55.36
2023-04-14T09:51:06.453Z,55.49
2023-04-14T09:52:01.083Z,56.08
2023-04-14T09:52:56.812Z,56.64
2023-04-14T09:53:52.211Z,56.67
2023-04-14T09:54:47.604Z,55.51
2023-04-14T09:55:43.263Z,55.12
2023-04-14T09:56:38.895Z,54.40
2023-04-14T09:57:34.111Z,54.31
2023-04-14T09:58:31.174Z,54.83
2023-04-14T09:59:26.011Z,54.83
2023-04-14T10:00:22.013Z,55.40
2023-04-14T10:01:17.635Z,54.54
2023-04-14T10:02:13.130Z,53.44
2023-04-14T10:03:08.800Z,52.29
2023-04-14T10:04:04.348Z,53.10
2023-04-14T10:05:00.191Z,52.33
2023-04-14T10:05:55.767Z,51.58
2023-04-14T10:06:51.107Z,52.30
2023-04-14T10:07:46.967Z,49.56
2023-04-14T10:08:42.534Z,50.58
2023-04-14T10:09:37.989Z,50.15
2023-04-14T10:10:34.251Z,49.44
2023-04-14T10:11:30.025Z,49.31
2023-04-14T10:12:26.267Z,48.75
2023-04-14T10:13:21.234Z,48.93
2023-04-14T10:14:16.473Z,47.48
2023-04-14T10:15:12.208Z,47.10
2023-04-14T10:16:07.796Z,48.10
2023-04-14T10:17:03.589Z,48.47
2023-04-14T10:17:59.003Z,48.72
2023-04-14T10:18:54.230Z,48.49
2023-04-14T10:19:50.006Z,48.56
2023-04-14T10:20:45.446Z,48.81
2023-04-14T10:21:41.030Z,49.59
2023-04-14T10:22:38.498Z,49.33
2023-04-14T10:23:32.555Z,48.84
2023-04-14T10:24:28.460Z,49.33
2023-04-14T10:25:23.957Z,50.54
2023-04-14T10:26:19.559Z,50.84
2023-04-14T10:27:15.469Z,51.35
2023-04-14T10:28:10.804Z,51.84
2023-04-14T10:29:06.861Z,52.25
2023-04-14T10:30:01.997Z,52.13
2023-04-14T10:30:57.344Z,52.43
2023-04-14T10:31:53.232Z,52.50
2023-04-14T10:32:48.733Z,52.83
2023-04-14T10:33:44.117Z,53.05
2023-04-14T10:34:42.589Z,53.01
2023-04-14T10:35:35.918Z,53.39
2023-04-14T10:37:55.501Z,51.19
2023-04-14T10:38:50.690Z,49.07
2023-04-14T10:39:46.258Z,47.78
2023-04-14T10:40:41.508Z,47.51
2023-04-14T10:41:36.890Z,47.40
2023-04-14T10:42:32.360Z,47.47
2023-04-14T10:43:27.771Z,47.00
2023-04-14T10:44:23.254Z,47.36
2023-04-14T10:45:18.584Z,47.63
2023-04-14T10:46:14.977Z,47.65
2023-04-14T10:47:09.698Z,48.51
2023-04-14T10:48:05.199Z,49.12
2023-04-14T10:49:00.591Z,49.13
2023-04-14T10:49:55.820Z,49.98
2023-04-14T10:50:51.203Z,50.00
2023-04-14T10:51:47.920Z,50.16
2023-04-14T10:52:41.991Z,50.42
2023-04-14T10:53:37.396Z,50.83
2023-04-14T10:54:32.884Z,51.58
2023-04-14T10:55:28.269Z,51.79
2023-04-14T10:56:23.715Z,52.08
2023-04-14T10:57:19.344Z,52.17
2023-04-14T10:58:14.681Z,52.11
2023-04-14T10:59:09.949Z,51.79
2023-04-14T11:00:06.189Z,52.27
2023-04-14T11:01:00.919Z,52.15
2023-04-14T11:01:56.668Z,51.62
2023-04-14T11:02:52.067Z,52.02
2023-04-14T11:03:47.441Z,51.72
2023-04-14T11:04:42.900Z,51.42
2023-04-14T11:05:38.282Z,51.02
2023-04-14T11:06:33.725Z,50.62
2023-04-14T11:07:29.142Z,50.90
2023-04-14T11:08:24.579Z,49.53
2023-04-14T11:09:19.844Z,48.06
2023-04-14T11:10:15.498Z,48.01
2023-04-14T11:11:10.777Z,47.13
2023-04-14T11:12:06.235Z,48.51
2023-04-14T11:13:01.661Z,47.58
2023-04-14T11:13:57.072Z,48.68
2023-04-14T11:14:52.515Z,47.70
2023-04-14T11:15:48.050Z,47.36
2023-04-14T11:16:50.785Z,47.28
2023-04-14T11:17:40.457Z,46.96
2023-04-14T11:18:34.510Z,47.21
2023-04-14T11:19:30.013Z,48.07
2023-04-14T11:20:25.539Z,48.13
2023-04-14T11:21:21.042Z,47.90
2023-04-14T11:22:16.392Z,48.04
2023-04-14T11:23:11.917Z,48.35
2023-04-14T11:24:07.116Z,48.75
2023-04-14T11:25:02.492Z,49.46
2023-04-14T11:25:57.898Z,49.81
2023-04-14T11:26:53.353Z,49.99
2023-04-14T11:27:48.767Z,50.03
2023-04-14T11:28:44.224Z,47.98
2023-04-14T11:29:39.630Z,46.91
2023-04-14T11:30:35.046Z,45.76
2023-04-14T11:31:30.513Z,44.74
2023-04-14T11:32:26.103Z,43.80
2023-04-14T11:33:21.473Z,43.44
2023-04-14T11:34:16.761Z,43.48
2023-04-14T11:35:12.136Z,43.47
2023-04-14T11:36:07.660Z,44.02
2023-04-14T11:37:03.003Z,43.75
2023-04-14T11:37:58.461Z,42.81
2023-04-14T11:38:53.916Z,41.74
2023-04-14T11:39:49.548Z,41.52
2023-04-14T11:40:44.947Z,41.42
2023-04-14T11:41:40.416Z,43.13
2023-04-14T11:42:35.876Z,42.52
2023-04-14T11:43:31.486Z,41.51
2023-04-14T11:44:26.986Z,42.53
2023-04-14T11:45:22.355Z,42.97
2023-04-14T11:46:17.869Z,43.96
2023-04-14T11:47:13.121Z,44.63
2023-04-14T11:48:08.703Z,44.72
2023-04-14T11:49:04.157Z,44.99
2023-04-14T11:49:59.465Z,45.56
2023-04-14T11:50:54.978Z,45.55
2023-04-14T11:51:50.474Z,45.73
2023-04-14T11:52:45.932Z,46.47
2023-04-14T11:53:41.334Z,47.46
2023-04-14T11:54:36.814Z,46.37
2023-04-14T11:55:32.181Z,46.35
2023-04-14T11:56:27.568Z,46.20